Time;durP1;ratioP1;P1;durP2;ratioP2;P2;SDS_P1;SDS_P2;PMS_P1;PMS_P2;Temp;Humidity;BMP_temperature;BMP_pressure;BME280_temperature;BME280_humidity;BME280_pressure;Samples;Min_cycle;Max_cycle;Signal;HPM_P1;HPM_P2
2023/06/13 00:00:46;;;;;;;6.43;3.05;;;;;;;;;;5082366;28;20060;-73
2023/06/13 00:03:13;;;;;;;5.00;3.15;;;;;;;;;;5064987;28;20039;-73
2023/06/13 00:05:45;;;;;;;5.90;3.17;;;;;;;;;;5065636;28;20121;-72
2023/06/13 00:08:17;;;;;;;4.00;2.90;;;;;;;;;;5084017;28;20025;-73
2023/06/13 00:10:46;;;;;;;5.20;3.45;;;;;;;;;;5061490;28;20278;-72
2023/06/13 00:13:11;;;;;;;5.05;3.45;;;;;;;;;;5083879;28;20037;-73
2023/06/13 00:15:38;;;;;;;4.65;3.30;;;;;;;;;;5068489;28;20082;-72
2023/06/13 00:18:04;;;;;;;6.85;3.03;;;;;;;;;;5063296;28;20028;-72
2023/06/13 00:20:30;;;;;;;4.82;3.13;;;;;;;;;;5063550;28;20036;-72
2023/06/13 00:22:57;;;;;;;4.85;3.22;;;;;;;;;;5088403;28;20020;-74
2023/06/13 00:25:22;;;;;;;5.18;3.58;;;;;;;;;;5083297;28;20590;-72
2023/06/13 00:27:48;;;;;;;5.13;3.08;;;;;;;;;;5087261;28;20052;-74
2023/06/13 00:30:13;;;;;;;6.78;3.28;;;;;;;;;;5091740;28;20028;-73
2023/06/13 00:32:38;;;;;;;5.28;3.17;;;;;;;;;;5094837;28;20122;-72
2023/06/13 00:35:04;;;;;;;5.07;3.10;;;;;;;;;;5088112;28;20028;-73
2023/06/13 00:37:34;;;;;;;5.43;3.20;;;;;;;;;;5071184;28;20028;-72
2023/06/13 00:39:59;;;;;;;5.18;3.03;;;;;;;;;;5071491;28;20527;-73
2023/06/13 00:42:24;;;;;;;5.50;3.72;;;;;;;;;;5088235;28;20028;-72
2023/06/13 00:44:50;;;;;;;6.15;3.35;;;;;;;;;;5095406;28;20032;-72
2023/06/13 00:47:15;;;;;;;4.57;3.22;;;;;;;;;;5076554;28;20123;-72
2023/06/13 00:49:41;;;;;;;4.68;3.13;;;;;;;;;;5066128;28;20032;-72
2023/06/13 00:52:08;;;;;;;4.80;3.13;;;;;;;;;;5089714;28;20033;-74
2023/06/13 00:54:38;;;;;;;5.28;3.25;;;;;;;;;;5069298;28;20026;-72
2023/06/13 00:57:07;;;;;;;5.78;3.28;;;;;;;;;;5077165;28;20024;-73
2023/06/13 00:59:33;;;;;;;4.13;3.03;;;;;;;;;;5090341;28;20422;-72
2023/06/13 01:01:59;;;;;;;6.38;3.50;;;;;;;;;;5072698;28;20027;-73
2023/06/13 01:04:27;;;;;;;6.13;3.38;;;;;;;;;;5072271;28;20054;-72
2023/06/13 01:06:52;;;;;;;5.47;3.40;;;;;;;;;;5090380;28;20507;-73
2023/06/13 01:09:18;;;;;;;4.50;3.30;;;;;;;;;;5065216;28;20032;-72
2023/06/13 01:11:54;;;;;;;4.65;3.30;;;;;;;;;;5074348;28;20020;-72
2023/06/13 01:14:31;;;;;;;5.22;3.10;;;;;;;;;;5075801;28;20119;-73
2023/06/13 01:17:04;;;;;;;5.53;3.35;;;;;;;;;;5090911;28;20024;-72
2023/06/13 01:19:42;;;;;;;4.82;3.38;;;;;;;;;;5071683;28;20039;-72
2023/06/13 01:22:22;;;;;;;6.45;3.25;;;;;;;;;;5092358;28;20030;-72
2023/06/13 01:25:12;;;;;;;4.03;2.92;;;;;;;;;;5066211;28;20028;-72
2023/06/13 01:27:39;;;;;;;4.88;3.25;;;;;;;;;;5095519;28;20119;-74
2023/06/13 01:30:05;;;;;;;7.20;3.35;;;;;;;;;;5074145;28;20016;-72
2023/06/13 01:32:33;;;;;;;4.30;2.97;;;;;;;;;;5097649;28;20122;-73
2023/06/13 01:34:58;;;;;;;6.90;3.17;;;;;;;;;;5069474;28;20063;-72
2023/06/13 01:37:25;;;;;;;4.07;3.10;;;;;;;;;;5094050;28;20028;-72
2023/06/13 01:39:50;;;;;;;5.63;3.50;;;;;;;;;;5070655;28;20033;-72
2023/06/13 01:42:15;;;;;;;8.13;3.60;;;;;;;;;;5092001;28;20396;-72
2023/06/13 01:44:41;;;;;;;5.30;3.35;;;;;;;;;;5086006;28;20036;-73
2023/06/13 01:47:22;;;;;;;4.30;3.00;;;;;;;;;;5069211;28;20020;-72
2023/06/13 01:49:59;;;;;;;5.75;3.42;;;;;;;;;;5089160;28;20051;-72
2023/06/13 01:52:31;;;;;;;5.28;3.30;;;;;;;;;;5071597;28;20028;-72
2023/06/13 01:55:21;;;;;;;4.53;3.17;;;;;;;;;;5084222;28;20024;-72
2023/06/13 01:58:02;;;;;;;5.57;3.20;;;;;;;;;;5082810;28;20044;-72
2023/06/13 02:00:28;;;;;;;4.85;3.50;;;;;;;;;;5088087;28;20036;-73
2023/06/13 02:02:55;;;;;;;5.53;3.10;;;;;;;;;;5068346;28;20123;-72
2023/06/13 02:05:20;;;;;;;8.07;3.50;;;;;;;;;;5088358;28;20024;-72
2023/06/13 02:07:46;;;;;;;7.30;3.15;;;;;;;;;;5084218;28;20025;-72
2023/06/13 02:10:11;;;;;;;4.53;3.05;;;;;;;;;;5069434;28;20028;-73
2023/06/13 02:12:36;;;;;;;5.53;3.40;;;;;;;;;;5086512;28;20488;-74
2023/06/13 02:15:02;;;;;;;5.28;3.20;;;;;;;;;;5084679;28;20029;-72
2023/06/13 02:17:29;;;;;;;4.85;3.25;;;;;;;;;;5069316;28;20020;-74
2023/06/13 02:19:54;;;;;;;4.82;3.35;;;;;;;;;;5083399;28;20054;-72
2023/06/13 02:22:19;;;;;;;5.13;3.25;;;;;;;;;;5087122;28;20764;-71
2023/06/13 02:24:47;;;;;;;7.93;3.65;;;;;;;;;;5089315;28;20035;-73
2023/06/13 02:27:12;;;;;;;5.25;3.28;;;;;;;;;;5065540;28;20037;-72
2023/06/13 02:29:38;;;;;;;4.47;3.63;;;;;;;;;;5073256;28;20398;-72
2023/06/13 02:32:04;;;;;;;4.78;3.45;;;;;;;;;;5067125;28;20024;-73
2023/06/13 02:34:30;;;;;;;4.10;3.08;;;;;;;;;;5066294;28;20028;-75
2023/06/13 02:36:55;;;;;;;5.70;3.40;;;;;;;;;;5087663;28;20035;-73
2023/06/13 02:39:20;;;;;;;5.55;3.50;;;;;;;;;;5090151;28;20112;-74
2023/06/13 02:41:46;;;;;;;7.10;3.30;;;;;;;;;;5089200;28;20016;-72
2023/06/13 02:44:11;;;;;;;5.38;3.25;;;;;;;;;;5086270;28;20404;-73
2023/06/13 02:46:36;;;;;;;5.55;3.28;;;;;;;;;;5068988;28;20040;-72
2023/06/13 02:49:02;;;;;;;5.15;3.33;;;;;;;;;;5083932;28;20030;-72
2023/06/13 02:51:27;;;;;;;4.90;3.08;;;;;;;;;;5066528;28;20075;-72
2023/06/13 02:53:53;;;;;;;4.55;3.38;;;;;;;;;;5089841;28;20059;-73
2023/06/13 02:56:18;;;;;;;4.85;3.22;;;;;;;;;;5081860;28;20032;-73
2023/06/13 02:58:43;;;;;;;6.07;3.92;;;;;;;;;;5080677;28;20028;-72
2023/06/13 03:01:09;;;;;;;7.22;3.90;;;;;;;;;;5085003;28;20032;-72
2023/06/13 03:03:34;;;;;;;7.20;3.53;;;;;;;;;;5065519;28;20021;-72
2023/06/13 03:06:01;;;;;;;5.35;3.50;;;;;;;;;;5066352;28;20027;-76
2023/06/13 03:08:27;;;;;;;6.07;3.50;;;;;;;;;;5087616;28;20530;-72
2023/06/13 03:10:53;;;;;;;5.65;3.42;;;;;;;;;;5067526;28;20024;-72
2023/06/13 03:13:18;;;;;;;7.35;3.47;;;;;;;;;;5088235;28;20062;-73
2023/06/13 03:15:45;;;;;;;5.55;3.42;;;;;;;;;;5085293;28;20024;-72
2023/06/13 03:18:11;;;;;;;7.35;3.58;;;;;;;;;;5062117;28;20427;-73
2023/06/13 03:20:37;;;;;;;4.82;3.33;;;;;;;;;;5083001;28;20080;-74
2023/06/13 03:23:02;;;;;;;5.82;3.60;;;;;;;;;;5088138;28;20047;-72
2023/06/13 03:25:28;;;;;;;5.38;3.40;;;;;;;;;;5088138;28;20043;-72
2023/06/13 03:27:53;;;;;;;6.63;3.67;;;;;;;;;;5084132;28;20024;-72
2023/06/13 03:30:18;;;;;;;6.25;3.60;;;;;;;;;;5067238;28;20040;-72
2023/06/13 03:32:44;;;;;;;7.97;4.00;;;;;;;;;;5067422;28;20025;-72
2023/06/13 03:35:09;;;;;;;4.63;3.08;;;;;;;;;;5075585;28;20024;-75
2023/06/13 03:37:35;;;;;;;5.10;3.75;;;;;;;;;;5066248;28;20032;-76
2023/06/13 03:40:00;;;;;;;5.93;3.67;;;;;;;;;;5087516;28;20461;-72
2023/06/13 03:42:25;;;;;;;5.50;3.95;;;;;;;;;;5066868;28;20028;-72
2023/06/13 03:44:51;;;;;;;6.05;3.75;;;;;;;;;;5088122;28;20039;-72
2023/06/13 03:47:16;;;;;;;6.10;3.78;;;;;;;;;;5089581;28;20029;-72
2023/06/13 03:49:43;;;;;;;4.75;3.47;;;;;;;;;;5086370;28;20088;-72
2023/06/13 03:52:09;;;;;;;4.88;3.45;;;;;;;;;;5085503;28;20059;-72
2023/06/13 03:54:34;;;;;;;7.70;4.00;;;;;;;;;;5076940;28;20495;-74
2023/06/13 03:57:00;;;;;;;6.75;4.38;;;;;;;;;;5086988;28;20028;-72
2023/06/13 03:59:25;;;;;;;5.68;3.95;;;;;;;;;;5090526;28;20043;-72
2023/06/13 04:01:50;;;;;;;10.07;3.90;;;;;;;;;;5082157;28;20735;-73
2023/06/13 04:04:17;;;;;;;6.15;3.75;;;;;;;;;;5086433;28;20467;-72
2023/06/13 04:06:47;;;;;;;7.57;3.67;;;;;;;;;;5080065;28;20061;-72
2023/06/13 04:09:13;;;;;;;7.22;3.88;;;;;;;;;;5081021;28;20468;-74
2023/06/13 04:11:38;;;;;;;5.95;3.70;;;;;;;;;;5061656;28;20043;-76
2023/06/13 04:14:03;;;;;;;5.80;3.70;;;;;;;;;;5068574;28;20039;-72
2023/06/13 04:16:29;;;;;;;7.90;4.20;;;;;;;;;;5086710;28;20033;-73
2023/06/13 04:18:55;;;;;;;5.32;4.05;;;;;;;;;;5086913;28;20108;-72
2023/06/13 04:21:21;;;;;;;6.07;3.90;;;;;;;;;;5085686;28;20644;-72
2023/06/13 04:23:48;;;;;;;8.38;4.28;;;;;;;;;;5088982;28;20029;-72
2023/06/13 04:26:17;;;;;;;5.40;3.90;;;;;;;;;;5066622;28;20037;-72
2023/06/13 04:28:43;;;;;;;7.07;4.38;;;;;;;;;;5089669;28;20020;-72
2023/06/13 04:31:10;;;;;;;6.20;4.20;;;;;;;;;;5067660;28;20028;-76
2023/06/13 04:33:37;;;;;;;6.03;4.32;;;;;;;;;;5085513;28;20480;-72
2023/06/13 04:36:05;;;;;;;8.48;3.92;;;;;;;;;;5066128;28;20028;-72
2023/06/13 04:38:34;;;;;;;6.68;4.30;;;;;;;;;;5073394;28;20020;-73
2023/06/13 04:41:00;;;;;;;5.70;4.10;;;;;;;;;;5066419;28;20028;-72
2023/06/13 04:43:28;;;;;;;7.22;3.80;;;;;;;;;;5086101;28;20024;-72
2023/06/13 04:45:55;;;;;;;6.97;4.88;;;;;;;;;;5069796;28;20442;-74
2023/06/13 04:48:25;;;;;;;5.82;4.20;;;;;;;;;;5069016;28;20393;-73
2023/06/13 04:50:52;;;;;;;5.68;4.07;;;;;;;;;;5060884;28;20035;-71
2023/06/13 04:53:21;;;;;;;5.35;4.20;;;;;;;;;;5082059;28;20032;-73
2023/06/13 04:55:47;;;;;;;6.20;4.22;;;;;;;;;;5084212;28;20117;-72
2023/06/13 04:58:13;;;;;;;8.60;4.30;;;;;;;;;;5089294;28;20032;-72
2023/06/13 05:00:38;;;;;;;5.60;4.22;;;;;;;;;;5066396;28;20032;-71
2023/06/13 05:03:04;;;;;;;7.40;4.95;;;;;;;;;;5090177;28;20020;-72
2023/06/13 05:05:29;;;;;;;7.18;4.25;;;;;;;;;;5084226;28;20017;-72
2023/06/13 05:07:57;;;;;;;5.63;4.10;;;;;;;;;;5073579;28;20022;-73
2023/06/13 05:10:26;;;;;;;6.43;3.90;;;;;;;;;;5084901;28;20043;-71
2023/06/13 05:12:53;;;;;;;8.40;4.20;;;;;;;;;;5092843;28;20024;-72
2023/06/13 05:15:20;;;;;;;5.70;4.18;;;;;;;;;;5070501;28;20028;-71
2023/06/13 05:17:45;;;;;;;8.13;4.30;;;;;;;;;;5071140;28;20028;-72
2023/06/13 05:20:12;;;;;;;4.88;3.90;;;;;;;;;;5094537;28;20027;-71
2023/06/13 05:22:47;;;;;;;4.85;3.95;;;;;;;;;;5094527;28;20020;-72
2023/06/13 05:25:13;;;;;;;7.35;4.78;;;;;;;;;;5089403;28;20473;-73
2023/06/13 05:27:38;;;;;;;6.15;4.18;;;;;;;;;;5075487;28;20023;-71
2023/06/13 05:30:10;;;;;;;6.90;4.40;;;;;;;;;;5092642;28;20048;-76
2023/06/13 05:32:36;;;;;;;5.35;3.97;;;;;;;;;;5068742;28;20020;-71
2023/06/13 05:35:02;;;;;;;6.47;4.22;;;;;;;;;;5085824;28;20449;-71
2023/06/13 05:37:28;;;;;;;7.35;4.95;;;;;;;;;;5072864;28;20035;-72
2023/06/13 05:39:54;;;;;;;7.10;4.00;;;;;;;;;;5091733;28;20028;-74
2023/06/13 05:42:19;;;;;;;5.78;4.07;;;;;;;;;;5074724;28;20032;-72
2023/06/13 05:44:45;;;;;;;7.45;4.07;;;;;;;;;;5072075;28;20032;-75
2023/06/13 05:47:10;;;;;;;10.60;4.57;;;;;;;;;;5091877;28;20019;-71
2023/06/13 05:49:35;;;;;;;6.93;4.30;;;;;;;;;;5099263;28;20030;-72
2023/06/13 05:52:01;;;;;;;9.68;4.78;;;;;;;;;;5072374;28;20028;-72
2023/06/13 05:54:26;;;;;;;7.30;4.18;;;;;;;;;;5088826;28;20020;-72
2023/06/13 05:56:51;;;;;;;5.78;4.00;;;;;;;;;;5088959;28;20028;-72
2023/06/13 05:59:17;;;;;;;9.63;4.38;;;;;;;;;;5088375;28;20028;-71
2023/06/13 06:01:43;;;;;;;7.95;4.20;;;;;;;;;;5073989;28;20058;-71
2023/06/13 06:04:09;;;;;;;6.72;3.80;;;;;;;;;;5074505;28;20035;-72
2023/06/13 06:06:34;;;;;;;9.93;4.38;;;;;;;;;;5091244;28;20032;-72
2023/06/13 06:09:00;;;;;;;7.03;3.90;;;;;;;;;;5091544;28;20028;-72
2023/06/13 06:11:26;;;;;;;4.95;3.85;;;;;;;;;;5090131;28;20024;-72
2023/06/13 06:13:51;;;;;;;6.90;3.92;;;;;;;;;;5071746;28;20024;-76
2023/06/13 06:16:17;;;;;;;8.75;4.43;;;;;;;;;;5080440;28;20032;-72
2023/06/13 06:18:42;;;;;;;5.45;3.90;;;;;;;;;;5092271;28;20051;-71
2023/06/13 06:21:07;;;;;;;8.15;4.82;;;;;;;;;;5078199;28;20016;-72
2023/06/13 06:23:33;;;;;;;7.18;4.00;;;;;;;;;;5086010;28;20024;-72
2023/06/13 06:25:58;;;;;;;7.65;4.05;;;;;;;;;;5067634;28;20033;-72
2023/06/13 06:28:24;;;;;;;6.38;4.40;;;;;;;;;;5087609;28;20036;-76
2023/06/13 06:30:50;;;;;;;6.97;3.90;;;;;;;;;;5079013;28;20033;-72
2023/06/13 06:33:15;;;;;;;7.55;3.88;;;;;;;;;;5071818;28;20024;-73
2023/06/13 06:35:40;;;;;;;6.72;4.35;;;;;;;;;;5089995;28;20035;-72
2023/06/13 06:38:06;;;;;;;7.47;3.97;;;;;;;;;;5079143;28;20037;-73
2023/06/13 06:40:31;;;;;;;7.40;3.83;;;;;;;;;;5090454;28;20028;-72
2023/06/13 06:42:56;;;;;;;6.30;3.97;;;;;;;;;;5088167;28;20016;-73
2023/06/13 06:45:22;;;;;;;8.73;4.35;;;;;;;;;;5072481;28;20020;-71
2023/06/13 06:47:47;;;;;;;6.13;3.55;;;;;;;;;;5095258;28;20035;-72
2023/06/13 06:50:13;;;;;;;5.35;3.67;;;;;;;;;;5069519;28;20036;-72
2023/06/13 06:52:38;;;;;;;6.78;3.97;;;;;;;;;;5091405;28;20032;-73
2023/06/13 06:55:04;;;;;;;5.63;3.80;;;;;;;;;;5071523;28;20028;-73
2023/06/13 06:57:30;;;;;;;6.70;3.70;;;;;;;;;;5069270;28;20048;-72
2023/06/13 06:59:55;;;;;;;5.25;3.60;;;;;;;;;;5070217;28;20024;-74
2023/06/13 07:02:20;;;;;;;6.20;3.95;;;;;;;;;;5073718;28;20074;-71
2023/06/13 07:04:46;;;;;;;6.00;4.18;;;;;;;;;;5093832;28;20465;-72
2023/06/13 07:07:11;;;;;;;7.07;3.58;;;;;;;;;;5074389;28;20035;-73
2023/06/13 07:09:37;;;;;;;5.40;3.25;;;;;;;;;;5065662;28;20532;-72
2023/06/13 07:12:02;;;;;;;6.55;3.65;;;;;;;;;;5087302;28;20064;-75
2023/06/13 07:14:28;;;;;;;5.18;3.53;;;;;;;;;;5072894;28;20361;-72
2023/06/13 07:16:54;;;;;;;5.30;3.90;;;;;;;;;;5070272;28;20020;-72
2023/06/13 07:19:20;;;;;;;7.63;3.42;;;;;;;;;;5069970;28;20032;-73
2023/06/13 07:21:45;;;;;;;6.47;3.90;;;;;;;;;;5070351;28;20396;-72
2023/06/13 07:24:11;;;;;;;8.70;3.90;;;;;;;;;;5072056;28;20020;-72
2023/06/13 07:26:36;;;;;;;5.97;3.80;;;;;;;;;;5070852;28;20016;-72
2023/06/13 07:29:02;;;;;;;5.90;3.90;;;;;;;;;;5070018;28;20029;-72
2023/06/13 07:31:27;;;;;;;6.85;3.72;;;;;;;;;;5087829;28;20035;-74
2023/06/13 07:33:52;;;;;;;7.55;3.78;;;;;;;;;;5065993;28;20388;-73
2023/06/13 07:36:19;;;;;;;6.55;3.95;;;;;;;;;;5085662;28;20036;-72
2023/06/13 07:38:44;;;;;;;7.15;3.75;;;;;;;;;;5073203;28;20035;-72
2023/06/13 07:41:10;;;;;;;5.93;3.42;;;;;;;;;;5094159;28;20028;-72
2023/06/13 07:43:35;;;;;;;9.18;4.15;;;;;;;;;;5085701;28;20635;-72
2023/06/13 07:46:01;;;;;;;6.70;3.70;;;;;;;;;;5072105;28;20036;-74
2023/06/13 07:48:26;;;;;;;5.07;3.55;;;;;;;;;;5085961;28;20044;-72
2023/06/13 07:50:51;;;;;;;5.13;3.83;;;;;;;;;;5080916;28;20036;-73
2023/06/13 07:53:17;;;;;;;7.85;3.80;;;;;;;;;;5064836;28;20030;-74
2023/06/13 07:55:47;;;;;;;4.40;3.60;;;;;;;;;;5080007;28;20031;-73
2023/06/13 07:58:13;;;;;;;6.30;3.83;;;;;;;;;;5070137;28;20062;-72
2023/06/13 08:00:39;;;;;;;6.53;3.95;;;;;;;;;;5088141;28;20173;-73
2023/06/13 08:03:04;;;;;;;6.70;3.60;;;;;;;;;;5064621;28;20055;-75
2023/06/13 08:05:30;;;;;;;5.35;3.55;;;;;;;;;;5082515;28;20024;-74
2023/06/13 08:07:56;;;;;;;5.80;3.88;;;;;;;;;;5083847;28;20377;-73
2023/06/13 08:10:22;;;;;;;5.35;3.50;;;;;;;;;;5064626;28;20031;-73
2023/06/13 08:12:48;;;;;;;6.05;3.85;;;;;;;;;;5090604;28;20052;-73
2023/06/13 08:15:14;;;;;;;8.55;4.13;;;;;;;;;;5070374;28;20035;-72
2023/06/13 08:17:42;;;;;;;5.80;3.72;;;;;;;;;;5087389;28;20013;-74
2023/06/13 08:20:08;;;;;;;7.93;3.92;;;;;;;;;;5090143;28;20055;-73
2023/06/13 08:22:36;;;;;;;6.82;3.75;;;;;;;;;;5087788;28;20106;-73
2023/06/13 08:25:01;;;;;;;5.00;3.63;;;;;;;;;;5093707;28;20128;-72
2023/06/13 08:27:27;;;;;;;7.22;3.70;;;;;;;;;;5072211;28;20051;-72
2023/06/13 08:29:52;;;;;;;5.75;3.92;;;;;;;;;;5086796;28;20059;-75
2023/06/13 08:32:17;;;;;;;5.82;3.80;;;;;;;;;;5068438;28;20028;-74
2023/06/13 08:34:43;;;;;;;6.90;3.85;;;;;;;;;;5087824;28;20099;-73
2023/06/13 08:37:08;;;;;;;5.30;3.75;;;;;;;;;;5090408;28;20024;-72
2023/06/13 08:39:33;;;;;;;5.22;3.50;;;;;;;;;;5087778;28;20024;-75
2023/06/13 08:41:59;;;;;;;5.88;3.70;;;;;;;;;;5071266;28;20483;-72
2023/06/13 08:44:26;;;;;;;5.93;3.90;;;;;;;;;;5068595;28;20516;-73
2023/06/13 08:46:52;;;;;;;4.88;3.70;;;;;;;;;;5088210;28;20020;-73
2023/06/13 08:49:17;;;;;;;6.22;3.50;;;;;;;;;;5073957;28;20095;-72
2023/06/13 08:51:46;;;;;;;5.45;3.60;;;;;;;;;;5087778;28;20025;-73
2023/06/13 08:54:13;;;;;;;6.78;3.70;;;;;;;;;;5099032;28;20028;-75
2023/06/13 08:56:42;;;;;;;5.57;3.88;;;;;;;;;;5090546;28;20190;-73
2023/06/13 08:59:08;;;;;;;4.53;3.50;;;;;;;;;;5083298;28;20023;-73
2023/06/13 09:01:38;;;;;;;9.23;3.88;;;;;;;;;;5088859;28;20117;-76
2023/06/13 09:04:06;;;;;;;7.95;3.65;;;;;;;;;;5090023;28;20103;-73
2023/06/13 09:06:33;;;;;;;5.47;3.83;;;;;;;;;;5089296;28;20074;-72
2023/06/13 09:09:00;;;;;;;5.93;3.78;;;;;;;;;;5074537;28;20032;-77
2023/06/13 09:11:27;;;;;;;5.03;3.63;;;;;;;;;;5088554;28;20035;-74
2023/06/13 09:13:55;;;;;;;4.65;3.45;;;;;;;;;;5086492;28;20484;-73
2023/06/13 09:16:21;;;;;;;5.25;3.50;;;;;;;;;;5085366;28;20081;-74
2023/06/13 09:18:49;;;;;;;5.97;3.63;;;;;;;;;;5089570;28;20043;-73
2023/06/13 09:21:16;;;;;;;6.72;3.80;;;;;;;;;;5085868;28;20119;-73
2023/06/13 09:23:42;;;;;;;7.63;3.67;;;;;;;;;;5089278;28;20028;-73
2023/06/13 09:26:08;;;;;;;4.53;3.40;;;;;;;;;;5073083;28;20024;-74
2023/06/13 09:28:39;;;;;;;6.22;3.67;;;;;;;;;;5092857;28;20023;-73
2023/06/13 09:31:06;;;;;;;4.72;3.28;;;;;;;;;;5087070;28;20082;-76
2023/06/13 09:33:33;;;;;;;4.78;3.20;;;;;;;;;;5092862;28;20020;-74
2023/06/13 09:35:58;;;;;;;4.80;3.17;;;;;;;;;;5086663;28;20180;-73
2023/06/13 09:38:24;;;;;;;5.88;3.60;;;;;;;;;;5074897;28;20035;-74
2023/06/13 09:40:52;;;;;;;12.18;3.30;;;;;;;;;;5074678;28;20021;-74
2023/06/13 09:43:17;;;;;;;6.20;3.90;;;;;;;;;;5089188;28;20024;-74
2023/06/13 09:45:43;;;;;;;5.43;3.42;;;;;;;;;;5095006;28;20035;-75
2023/06/13 09:48:09;;;;;;;4.95;3.55;;;;;;;;;;5092538;28;20054;-74
2023/06/13 09:50:36;;;;;;;7.03;3.53;;;;;;;;;;5094474;28;20422;-74
2023/06/13 09:53:02;;;;;;;6.13;3.50;;;;;;;;;;5094290;28;20028;-74
2023/06/13 09:55:27;;;;;;;6.07;3.25;;;;;;;;;;5095690;28;20025;-74
2023/06/13 09:57:53;;;;;;;6.38;3.30;;;;;;;;;;5090247;28;20020;-75
2023/06/13 10:00:20;;;;;;;8.90;3.50;;;;;;;;;;5068390;28;20029;-74
2023/06/13 10:02:46;;;;;;;4.63;3.38;;;;;;;;;;5087087;28;20017;-77
2023/06/13 10:05:12;;;;;;;5.72;3.20;;;;;;;;;;5070222;28;20021;-74
2023/06/13 10:07:38;;;;;;;8.90;3.45;;;;;;;;;;5089447;28;20072;-75
2023/06/13 10:10:03;;;;;;;4.75;3.40;;;;;;;;;;5065404;28;20077;-77
2023/06/13 10:12:32;;;;;;;5.30;3.33;;;;;;;;;;5084578;28;20098;-74
2023/06/13 10:15:01;;;;;;;5.43;3.30;;;;;;;;;;5080202;28;20095;-75
2023/06/13 10:17:35;;;;;;;8.00;3.30;;;;;;;;;;5089302;28;20064;-74
2023/06/13 10:20:07;;;;;;;5.60;3.58;;;;;;;;;;5086511;28;20085;-75
2023/06/13 10:22:34;;;;;;;4.50;3.20;;;;;;;;;;5091439;28;20054;-75
2023/06/13 10:25:01;;;;;;;5.32;3.60;;;;;;;;;;5087863;28;20032;-74
2023/06/13 10:27:26;;;;;;;5.90;3.72;;;;;;;;;;5071720;28;20477;-74
2023/06/13 10:30:13;;;;;;;5.03;3.22;;;;;;;;;;5087006;28;20031;-75
2023/06/13 10:32:44;;;;;;;5.82;3.50;;;;;;;;;;5069447;28;20036;-74
2023/06/13 10:35:44;;;;;;;5.78;3.45;;;;;;;;;;5089076;28;20040;-73
2023/06/13 10:38:22;;;;;;;6.32;3.30;;;;;;;;;;5088664;28;20028;-75
2023/06/13 10:41:06;;;;;;;5.70;3.20;;;;;;;;;;5074386;28;20047;-74
2023/06/13 10:43:47;;;;;;;4.80;3.40;;;;;;;;;;5071682;28;20472;-76
2023/06/13 10:46:13;;;;;;;6.13;3.50;;;;;;;;;;5093399;28;20032;-74
2023/06/13 10:48:46;;;;;;;4.18;2.88;;;;;;;;;;5089126;28;20036;-74
2023/06/13 10:51:12;;;;;;;4.70;3.33;;;;;;;;;;5098036;28;20031;-75
2023/06/13 10:53:37;;;;;;;5.63;3.05;;;;;;;;;;5068999;28;20388;-75
2023/06/13 10:56:06;;;;;;;5.53;3.42;;;;;;;;;;5074279;28;20089;-74
2023/06/13 10:58:33;;;;;;;5.03;3.42;;;;;;;;;;5085937;28;20088;-77
2023/06/13 11:01:23;;;;;;;4.40;3.10;;;;;;;;;;5086547;28;20544;-74
2023/06/13 11:03:49;;;;;;;4.45;3.08;;;;;;;;;;5091008;28;20028;-74
2023/06/13 11:06:15;;;;;;;6.50;3.92;;;;;;;;;;5076013;28;20029;-74
2023/06/13 11:08:40;;;;;;;5.72;3.10;;;;;;;;;;5089672;28;20024;-75
2023/06/13 11:11:05;;;;;;;4.60;3.30;;;;;;;;;;5091033;28;20028;-74
2023/06/13 11:13:32;;;;;;;5.30;3.30;;;;;;;;;;5095595;28;20031;-74
2023/06/13 11:16:17;;;;;;;5.82;3.15;;;;;;;;;;5088596;28;20430;-75
2023/06/13 11:18:51;;;;;;;5.55;3.20;;;;;;;;;;5087691;28;20032;-74
2023/06/13 11:21:16;;;;;;;5.78;3.20;;;;;;;;;;5080162;28;20028;-75
2023/06/13 11:24:02;;;;;;;8.05;3.53;;;;;;;;;;5075509;28;20119;-75
2023/06/13 11:26:27;;;;;;;6.10;3.40;;;;;;;;;;5094541;28;20041;-75
2023/06/13 11:28:54;;;;;;;5.55;3.30;;;;;;;;;;5068600;28;20028;-74
2023/06/13 11:31:20;;;;;;;7.18;3.65;;;;;;;;;;5070286;28;20040;-74
2023/06/13 11:33:47;;;;;;;6.05;3.35;;;;;;;;;;5074327;28;20120;-74
2023/06/13 11:36:15;;;;;;;5.25;3.17;;;;;;;;;;5091143;28;20036;-75
2023/06/13 11:38:57;;;;;;;5.25;3.65;;;;;;;;;;5076999;28;20028;-75
2023/06/13 11:41:23;;;;;;;6.75;3.13;;;;;;;;;;5075673;28;20118;-75
2023/06/13 11:43:48;;;;;;;5.25;3.17;;;;;;;;;;5072720;28;20060;-74
2023/06/13 11:46:14;;;;;;;4.40;3.20;;;;;;;;;;5090415;28;20035;-74
2023/06/13 11:48:39;;;;;;;4.90;3.40;;;;;;;;;;5095577;28;20028;-74
2023/06/13 11:51:09;;;;;;;5.40;3.33;;;;;;;;;;5077065;28;20096;-74
2023/06/13 11:53:55;;;;;;;7.03;3.17;;;;;;;;;;5073203;28;20138;-74
2023/06/13 11:56:23;;;;;;;5.85;3.20;;;;;;;;;;5092634;28;20031;-74
2023/06/13 11:58:49;;;;;;;9.50;3.33;;;;;;;;;;5078697;28;20051;-77
2023/06/13 12:01:16;;;;;;;4.00;3.00;;;;;;;;;;5081592;28;20039;-74
2023/06/13 12:03:46;;;;;;;6.50;3.40;;;;;;;;;;5064461;28;20109;-74
2023/06/13 12:06:12;;;;;;;5.95;3.35;;;;;;;;;;5079416;28;20030;-74
2023/06/13 12:08:44;;;;;;;5.10;3.72;;;;;;;;;;5092195;28;20078;-75
2023/06/13 12:11:11;;;;;;;8.02;3.50;;;;;;;;;;5074274;28;20484;-75
2023/06/13 12:13:37;;;;;;;4.70;3.50;;;;;;;;;;5067560;28;20036;-74
2023/06/13 12:16:04;;;;;;;5.15;3.10;;;;;;;;;;5096132;28;20503;-75
2023/06/13 12:18:29;;;;;;;4.90;3.20;;;;;;;;;;5076756;28;20044;-74
2023/06/13 12:20:58;;;;;;;4.47;3.10;;;;;;;;;;5095037;28;20093;-76
2023/06/13 12:23:24;;;;;;;5.40;3.70;;;;;;;;;;5098521;28;20031;-75
2023/06/13 12:25:50;;;;;;;4.50;3.22;;;;;;;;;;5074590;28;20020;-75
2023/06/13 12:28:19;;;;;;;5.78;3.42;;;;;;;;;;5092813;28;20076;-74
2023/06/13 12:30:47;;;;;;;5.65;3.22;;;;;;;;;;5088631;28;20054;-74
2023/06/13 12:33:17;;;;;;;4.35;3.22;;;;;;;;;;5073555;28;20047;-76
2023/06/13 12:35:54;;;;;;;7.40;3.47;;;;;;;;;;5090157;28;20059;-76
2023/06/13 12:38:26;;;;;;;6.70;3.83;;;;;;;;;;5088795;28;20024;-74
2023/06/13 12:40:51;;;;;;;4.55;3.50;;;;;;;;;;5074731;28;20092;-74
2023/06/13 12:43:21;;;;;;;5.40;3.78;;;;;;;;;;5073540;28;20044;-74
2023/06/13 12:45:47;;;;;;;7.05;3.70;;;;;;;;;;5099273;28;20050;-74
2023/06/13 12:48:21;;;;;;;9.60;4.00;;;;;;;;;;5091412;28;20036;-76
2023/06/13 12:50:47;;;;;;;5.78;3.70;;;;;;;;;;5091870;28;20036;-74
2023/06/13 12:53:26;;;;;;;6.15;3.42;;;;;;;;;;5091534;28;20020;-74
2023/06/13 12:55:52;;;;;;;6.32;3.72;;;;;;;;;;5099398;28;20050;-75
2023/06/13 12:58:26;;;;;;;7.05;3.58;;;;;;;;;;5088563;28;20029;-74
2023/06/13 13:00:55;;;;;;;6.93;3.78;;;;;;;;;;5091575;28;20028;-74
2023/06/13 13:03:20;;;;;;;5.35;3.58;;;;;;;;;;5088114;28;20031;-75
2023/06/13 13:05:46;;;;;;;7.00;3.70;;;;;;;;;;5090904;28;20028;-74
2023/06/13 13:08:12;;;;;;;6.00;4.00;;;;;;;;;;5093250;28;20083;-75
2023/06/13 13:10:37;;;;;;;5.05;3.78;;;;;;;;;;5074091;28;20029;-74
2023/06/13 13:13:07;;;;;;;5.45;3.67;;;;;;;;;;5077802;28;20028;-74
2023/06/13 13:15:32;;;;;;;5.72;3.28;;;;;;;;;;5075718;28;20023;-74
2023/06/13 13:17:58;;;;;;;5.72;3.30;;;;;;;;;;5087344;28;20020;-74
2023/06/13 13:20:23;;;;;;;8.82;3.67;;;;;;;;;;5091417;28;20024;-74
2023/06/13 13:22:48;;;;;;;5.50;3.65;;;;;;;;;;5064988;28;20043;-75
2023/06/13 13:25:14;;;;;;;6.30;3.58;;;;;;;;;;5080608;28;20028;-74
2023/06/13 13:27:39;;;;;;;4.57;3.28;;;;;;;;;;5066861;28;20088;-75
2023/06/13 13:30:06;;;;;;;4.93;3.80;;;;;;;;;;5071969;28;20391;-76
2023/06/13 13:32:32;;;;;;;6.20;3.50;;;;;;;;;;5068921;28;20074;-74
2023/06/13 13:34:58;;;;;;;5.65;3.70;;;;;;;;;;5091912;28;20099;-74
2023/06/13 13:37:23;;;;;;;5.95;3.50;;;;;;;;;;5088377;28;20032;-76
2023/06/13 13:39:48;;;;;;;7.95;3.90;;;;;;;;;;5094003;28;20028;-75
2023/06/13 13:42:14;;;;;;;5.70;3.75;;;;;;;;;;5079807;28;20070;-75
2023/06/13 13:44:39;;;;;;;5.57;3.58;;;;;;;;;;5064775;28;20048;-74
2023/06/13 13:47:04;;;;;;;5.88;4.18;;;;;;;;;;5085836;28;20023;-74
2023/06/13 13:49:31;;;;;;;5.13;3.75;;;;;;;;;;5092425;28;20033;-73
2023/06/13 13:51:57;;;;;;;6.22;3.42;;;;;;;;;;5092562;28;20043;-75
2023/06/13 13:54:22;;;;;;;4.80;3.53;;;;;;;;;;5071834;28;20029;-77
2023/06/13 13:56:47;;;;;;;7.03;3.50;;;;;;;;;;5067447;28;20033;-74
2023/06/13 13:59:13;;;;;;;6.95;4.00;;;;;;;;;;5086116;28;20042;-76
2023/06/13 14:01:38;;;;;;;6.35;3.58;;;;;;;;;;5065115;28;20477;-74
2023/06/13 14:04:03;;;;;;;4.30;3.53;;;;;;;;;;5086867;28;20422;-74
2023/06/13 14:06:29;;;;;;;6.43;3.90;;;;;;;;;;5086626;28;20036;-75
2023/06/13 14:08:54;;;;;;;5.30;3.88;;;;;;;;;;5076080;28;22024;-75
2023/06/13 14:11:20;;;;;;;5.13;4.00;;;;;;;;;;5077681;28;20020;-74
2023/06/13 14:13:46;;;;;;;4.65;3.72;;;;;;;;;;5089043;28;20028;-74
2023/06/13 14:16:11;;;;;;;4.95;3.85;;;;;;;;;;5087030;28;20028;-75
2023/06/13 14:18:36;;;;;;;6.65;4.10;;;;;;;;;;5091600;28;20256;-74
2023/06/13 14:21:02;;;;;;;5.53;3.63;;;;;;;;;;5085790;28;20048;-75
2023/06/13 14:23:28;;;;;;;5.25;3.70;;;;;;;;;;5077372;28;20102;-74
2023/06/13 14:25:53;;;;;;;5.00;3.40;;;;;;;;;;5093481;28;20024;-74
2023/06/13 14:28:19;;;;;;;5.95;3.67;;;;;;;;;;5080476;28;20300;-74
2023/06/13 14:30:44;;;;;;;5.25;3.55;;;;;;;;;;5085510;28;20546;-74
2023/06/13 14:33:11;;;;;;;7.55;3.67;;;;;;;;;;5086442;28;20396;-76
2023/06/13 14:35:36;;;;;;;4.85;3.80;;;;;;;;;;5083833;28;20025;-74
2023/06/13 14:38:02;;;;;;;10.13;4.00;;;;;;;;;;5087559;28;20040;-76
2023/06/13 14:40:29;;;;;;;5.38;3.47;;;;;;;;;;5075676;28;20363;-75
2023/06/13 14:42:54;;;;;;;6.00;4.03;;;;;;;;;;5086935;28;20115;-75